»·PEaware :: N335AK KSAC-O59

N335AK :: KSAC-O59

FLIGHT INFORMATION

Flight Status: Arrived
Operator: Privately registered:
United States
More flights under this callsign
Pilot: Gabor H. (24209)
Aircraft: Unknown
(EPIC)
More flights by this aircraft type
Origin: KSAC Sacramento Executive
United States
Destination: O59 Cedarville
United States
More flights between these airports :: More routes between these airports
Route: +
File this flight plan on PilotEdge
Remarks:
Altitude:
(Current/Filed)
15,500ft
Speed:
(Current/Filed)
0kts
Departed: 28-Sep-20 11:41 AM
Arrived: 28-Sep-20 12:25 PM
Distance/Time
Traveled:
192nm/0:44
Distance/Time
To Go:
Arrived

Flight Plot

Page will automatically refresh every two minutes.

Flight plan parsing failed; only flown route is shown


Map Options




Map Legend


Flown Route
Filed Route
Departure Airport
Arrival Airport
Navaid (VOR, NDB)
Fix

Horizontal Profiles

Position Reports

Time Latitude Longitude Heading Altitude Ground
Speed
28-Sep-20 11:34 38.514770 -121.498394 226 23ft 0kts
28-Sep-20 11:35 38.514770 -121.498394 226 23ft 0kts
28-Sep-20 11:36 38.513315 -121.495936 142 24ft 14kts
28-Sep-20 11:37 38.510090 -121.498361 211 21ft 11kts
28-Sep-20 11:38 38.507913 -121.500209 212 20ft 9kts
28-Sep-20 11:38 38.506238 -121.501135 166 19ft 0kts
28-Sep-20 11:40 38.506231 -121.501133 166 20ft 0kts
28-Sep-20 11:41 38.514594 -121.492516 32 319ft 131kts
28-Sep-20 11:41 38.545507 -121.460472 46 1708ft 207kts
28-Sep-20 11:43 38.593481 -121.402498 36 4612ft 214kts
28-Sep-20 11:44 38.642246 -121.353773 25 6825ft 227kts
28-Sep-20 11:44 38.690990 -121.326280 21 9092ft 235kts
28-Sep-20 11:45 38.752124 -121.292473 22 11895ft 246kts
28-Sep-20 11:46 38.815870 -121.257171 21 14536ft 256kts
28-Sep-20 11:47 38.882309 -121.220315 21 16990ft 266kts
28-Sep-20 11:48 38.955067 -121.179856 22 17568ft 306kts
28-Sep-20 11:49 39.035294 -121.135135 26 17566ft 316kts
28-Sep-20 11:50 39.113068 -121.091686 26 17603ft 310kts
28-Sep-20 11:51 39.191579 -121.047730 26 17653ft 306kts
28-Sep-20 11:52 39.269562 -121.003963 26 17665ft 305kts
28-Sep-20 11:53 39.347171 -120.960302 26 17646ft 303kts
28-Sep-20 11:54 39.423934 -120.917010 26 17668ft 301kts
28-Sep-20 11:55 39.500423 -120.873771 26 17694ft 300kts
28-Sep-20 11:56 39.576867 -120.830453 26 17720ft 299kts
28-Sep-20 11:57 39.652886 -120.787271 26 17746ft 299kts
28-Sep-20 11:58 39.729239 -120.743795 26 17791ft 299kts
28-Sep-20 11:59 39.805062 -120.700518 26 17855ft 298kts
28-Sep-20 12:00 39.880939 -120.657101 26 17881ft 298kts
28-Sep-20 12:01 39.956725 -120.613632 26 17880ft 298kts
28-Sep-20 12:02 40.033101 -120.569716 26 17881ft 303kts
28-Sep-20 12:03 40.109913 -120.525440 26 17882ft 306kts
28-Sep-20 12:04 40.187825 -120.480422 26 17882ft 307kts
28-Sep-20 12:05 40.266163 -120.435042 26 17882ft 307kts
28-Sep-20 12:06 40.344283 -120.389672 26 17881ft 307kts
28-Sep-20 12:07 40.422531 -120.344111 27 17882ft 308kts
28-Sep-20 12:08 40.501268 -120.298149 27 17539ft 317kts
28-Sep-20 12:09 40.580963 -120.251508 27 17509ft 311kts
28-Sep-20 12:10 40.659610 -120.205361 27 17509ft 309kts
28-Sep-20 12:11 40.737985 -120.159253 27 17509ft 308kts
28-Sep-20 12:12 40.816447 -120.112971 27 17257ft 316kts
28-Sep-20 12:13 40.899471 -120.063854 27 15797ft 331kts
28-Sep-20 12:14 40.980145 -120.016015 28 14381ft 310kts
28-Sep-20 12:15 41.062105 -119.993092 345 12744ft 317kts
28-Sep-20 12:16 41.143343 -120.022874 349 11443ft 299kts
28-Sep-20 12:17 41.222650 -120.050319 349 10142ft 289kts
28-Sep-20 12:18 41.298965 -120.076793 348 8881ft 280kts
28-Sep-20 12:19 41.373280 -120.102632 348 7652ft 267kts
28-Sep-20 12:20 41.439761 -120.128638 344 6538ft 236kts
28-Sep-20 12:21 41.489287 -120.151432 344 6468ft 132kts
28-Sep-20 12:22 41.514695 -120.171616 324 5734ft 108kts
28-Sep-20 12:23 41.539983 -120.175817 27 5017ft 100kts
28-Sep-20 12:24 41.553213 -120.165906 142 4608ft 0kts
28-Sep-20 12:25 41.550554 -120.168088 245 4623ft 11kts
28-Sep-20 12:26 41.550152 -120.171005 264 4650ft 0kts
28-Sep-20 12:27 41.550152 -120.171005 265 4650ft 0kts
28-Sep-20 12:28 41.550152 -120.171005 265 4650ft 0kts
28-Sep-20 12:29 41.550152 -120.171005 265 4650ft 0kts
28-Sep-20 12:30 41.550152 -120.171005 265 4650ft 0kts
28-Sep-20 12:31 41.550152 -120.171005 265 4650ft 0kts
28-Sep-20 12:32 41.550152 -120.171005 265 4650ft 0kts
28-Sep-20 12:33 41.550152 -120.171005 265 4650ft 0kts
28-Sep-20 12:34 41.550152 -120.171005 265 4650ft 0kts
28-Sep-20 12:35 41.550152 -120.171005 265 4650ft 0kts
28-Sep-20 12:36 41.550152 -120.171005 265 4650ft 0kts
28-Sep-20 12:37 41.550152 -120.171005 265 4650ft 0kts
28-Sep-20 12:38 41.550152 -120.171005 265 4650ft 0kts

Navigation Log

Ident Type
Flight plan parsing failed, navigation log unavailable